sensor_id;sensor_type;location;lat;lon;timestamp;pressure;altitude;pressure_sealevel;temperature;humidity
57192;BME280;43052;52.588;13.396;2023-03-25T00:02:07;99890.88;;;7.94;71.32
57192;BME280;43052;52.588;13.396;2023-03-25T00:04:32;99881.38;;;7.92;71.52
57192;BME280;43052;52.588;13.396;2023-03-25T00:06:59;99897.00;;;7.90;71.63
57192;BME280;43052;52.588;13.396;2023-03-25T00:09:25;99890.09;;;7.88;71.68
57192;BME280;43052;52.588;13.396;2023-03-25T00:11:50;99890.91;;;7.90;71.60
57192;BME280;43052;52.588;13.396;2023-03-25T00:14:15;99885.75;;;7.87;71.79
57192;BME280;43052;52.588;13.396;2023-03-25T00:16:43;99883.19;;;7.82;71.88
57192;BME280;43052;52.588;13.396;2023-03-25T00:19:13;99885.78;;;7.80;71.97
57192;BME280;43052;52.588;13.396;2023-03-25T00:21:39;99882.34;;;7.77;72.58
57192;BME280;43052;52.588;13.396;2023-03-25T00:24:05;99876.31;;;7.75;72.46
57192;BME280;43052;52.588;13.396;2023-03-25T00:26:31;99868.50;;;7.75;72.79
57192;BME280;43052;52.588;13.396;2023-03-25T00:28:56;99866.78;;;7.72;72.84
57192;BME280;43052;52.588;13.396;2023-03-25T00:31:21;99864.22;;;7.66;72.96
57192;BME280;43052;52.588;13.396;2023-03-25T00:33:47;99863.38;;;7.64;73.03
57192;BME280;43052;52.588;13.396;2023-03-25T00:36:14;99871.19;;;7.62;73.26
57192;BME280;43052;52.588;13.396;2023-03-25T00:38:41;99872.94;;;7.62;73.24
57192;BME280;43052;52.588;13.396;2023-03-25T00:43:37;99882.44;;;7.63;73.35
57192;BME280;43052;52.588;13.396;2023-03-25T00:46:02;99877.28;;;7.60;73.45
57192;BME280;43052;52.588;13.396;2023-03-25T00:48:28;99875.56;;;7.56;73.78
57192;BME280;43052;52.588;13.396;2023-03-25T00:50:53;99891.16;;;7.59;73.91
57192;BME280;43052;52.588;13.396;2023-03-25T00:53:19;99879.06;;;7.56;74.16
57192;BME280;43052;52.588;13.396;2023-03-25T00:55:44;99878.19;;;7.56;74.11
57192;BME280;43052;52.588;13.396;2023-03-25T00:58:09;99883.41;;;7.52;74.29
57192;BME280;43052;52.588;13.396;2023-03-25T01:00:35;99879.94;;;7.52;74.13
57192;BME280;43052;52.588;13.396;2023-03-25T01:03:00;99880.81;;;7.52;74.57
57192;BME280;43052;52.588;13.396;2023-03-25T01:05:28;99882.56;;;7.50;74.42
57192;BME280;43052;52.588;13.396;2023-03-25T01:07:53;99882.56;;;7.50;74.57
57192;BME280;43052;52.588;13.396;2023-03-25T01:10:19;99892.13;;;7.47;74.58
57192;BME280;43052;52.588;13.396;2023-03-25T01:12:45;99885.19;;;7.43;74.84
57192;BME280;43052;52.588;13.396;2023-03-25T01:15:11;99882.63;;;7.41;74.68
57192;BME280;43052;52.588;13.396;2023-03-25T01:17:36;99884.34;;;7.39;74.98
57192;BME280;43052;52.588;13.396;2023-03-25T01:20:01;99880.06;;;7.35;75.09
57192;BME280;43052;52.588;13.396;2023-03-25T01:22:29;99887.00;;;7.34;75.13
57192;BME280;43052;52.588;13.396;2023-03-25T01:24:55;99882.66;;;7.36;75.23
57192;BME280;43052;52.588;13.396;2023-03-25T01:27:20;99878.31;;;7.39;75.51
57192;BME280;43052;52.588;13.396;2023-03-25T01:29:45;99877.41;;;7.43;75.37
57192;BME280;43052;52.588;13.396;2023-03-25T01:32:10;99878.25;;;7.48;75.34
57192;BME280;43052;52.588;13.396;2023-03-25T01:34:36;99871.25;;;7.53;75.37
57192;BME280;43052;52.588;13.396;2023-03-25T01:37:02;99865.16;;;7.59;75.41
57192;BME280;43052;52.588;13.396;2023-03-25T01:39:28;99859.06;;;7.60;75.41
57192;BME280;43052;52.588;13.396;2023-03-25T01:41:53;99855.59;;;7.62;75.37
57192;BME280;43052;52.588;13.396;2023-03-25T01:46:44;99853.06;;;7.51;75.42
57192;BME280;43052;52.588;13.396;2023-03-25T01:49:15;99847.88;;;7.45;75.24
57192;BME280;43052;52.588;13.396;2023-03-25T01:51:43;99847.94;;;7.42;75.66
57192;BME280;43052;52.588;13.396;2023-03-25T01:54:11;99842.75;;;7.37;75.55
57192;BME280;43052;52.588;13.396;2023-03-25T01:56:39;99841.91;;;7.35;75.57
57192;BME280;43052;52.588;13.396;2023-03-25T01:59:07;99839.31;;;7.34;75.50
57192;BME280;43052;52.588;13.396;2023-03-25T02:01:33;99836.72;;;7.31;75.82
57192;BME280;43052;52.588;13.396;2023-03-25T02:03:59;99844.53;;;7.28;75.68
57192;BME280;43052;52.588;13.396;2023-03-25T02:06:51;99849.72;;;7.31;75.86
57192;BME280;43052;52.588;13.396;2023-03-25T02:09:20;99828.94;;;7.31;75.73
57192;BME280;43052;52.588;13.396;2023-03-25T02:11:47;99836.69;;;7.37;75.94
57192;BME280;43052;52.588;13.396;2023-03-25T02:14:15;99830.53;;;7.47;75.93
57192;BME280;43052;52.588;13.396;2023-03-25T02:19:58;99819.81;;;7.84;75.46
57192;BME280;43052;52.588;13.396;2023-03-25T02:22:54;99815.34;;;8.00;75.43
57192;BME280;43052;52.588;13.396;2023-03-25T02:28:27;99809.00;;;8.23;74.98
57192;BME280;43052;52.588;13.396;2023-03-25T02:31:31;99810.66;;;8.32;74.79
57192;BME280;43052;52.588;13.396;2023-03-25T02:40:05;99803.41;;;8.60;73.88
57192;BME280;43052;52.588;13.396;2023-03-25T02:45:35;99799.88;;;8.66;73.57
57192;BME280;43052;52.588;13.396;2023-03-25T02:48:10;99793.78;;;8.66;73.82
57192;BME280;43052;52.588;13.396;2023-03-25T02:50:59;99783.41;;;8.62;73.72
57192;BME280;43052;52.588;13.396;2023-03-25T02:53:31;99780.81;;;8.59;73.76
57192;BME280;43052;52.588;13.396;2023-03-25T02:56:02;99781.72;;;8.55;73.55
57192;BME280;43052;52.588;13.396;2023-03-25T02:58:29;99787.03;;;8.49;73.78
57192;BME280;43052;52.588;13.396;2023-03-25T03:00:56;99782.69;;;8.48;73.58
57192;BME280;43052;52.588;13.396;2023-03-25T03:03:25;99779.25;;;8.48;73.52
57192;BME280;43052;52.588;13.396;2023-03-25T03:05:52;99784.41;;;8.51;73.51
57192;BME280;43052;52.588;13.396;2023-03-25T03:08:51;99781.72;;;8.58;73.68
57192;BME280;43052;52.588;13.396;2023-03-25T03:11:34;99777.19;;;8.71;73.33
57192;BME280;43052;52.588;13.396;2023-03-25T03:16:55;99778.66;;;8.91;72.94
57192;BME280;43052;52.588;13.396;2023-03-25T03:19:50;99771.56;;;9.01;72.63
57192;BME280;43052;52.588;13.396;2023-03-25T03:25:05;99793.97;;;9.14;72.27
57192;BME280;43052;52.588;13.396;2023-03-25T03:27:42;99797.38;;;9.19;72.24
57192;BME280;43052;52.588;13.396;2023-03-25T03:30:18;99797.34;;;9.22;72.23
57192;BME280;43052;52.588;13.396;2023-03-25T03:32:50;99798.22;;;9.21;72.28
57192;BME280;43052;52.588;13.396;2023-03-25T03:35:25;99798.22;;;9.21;72.71
57192;BME280;43052;52.588;13.396;2023-03-25T03:38:02;99795.63;;;9.20;72.61
57192;BME280;43052;52.588;13.396;2023-03-25T03:40:30;99794.78;;;9.18;72.52
57192;BME280;43052;52.588;13.396;2023-03-25T03:43:01;99793.09;;;9.15;72.88
57192;BME280;43052;52.588;13.396;2023-03-25T03:45:51;99801.75;;;9.17;73.06
57192;BME280;43052;52.588;13.396;2023-03-25T03:48:25;99799.16;;;9.16;73.06
57192;BME280;43052;52.588;13.396;2023-03-25T03:51:02;99805.25;;;9.15;73.31
57192;BME280;43052;52.588;13.396;2023-03-25T03:53:31;99797.44;;;9.15;73.35
57192;BME280;43052;52.588;13.396;2023-03-25T03:56:07;99797.44;;;9.15;73.25
57192;BME280;43052;52.588;13.396;2023-03-25T03:58:36;99798.31;;;9.15;73.62
57192;BME280;43052;52.588;13.396;2023-03-25T04:03:42;99785.28;;;9.15;73.33
57192;BME280;43052;52.588;13.396;2023-03-25T04:06:23;99786.19;;;9.11;73.74
57192;BME280;43052;52.588;13.396;2023-03-25T04:08:54;99786.16;;;9.13;73.78
57192;BME280;43052;52.588;13.396;2023-03-25T04:11:29;99789.63;;;9.15;73.87
57192;BME280;43052;52.588;13.396;2023-03-25T04:13:58;99786.16;;;9.13;73.91
57192;BME280;43052;52.588;13.396;2023-03-25T04:16:25;99784.47;;;9.10;74.22
57192;BME280;43052;52.588;13.396;2023-03-25T04:18:50;99789.69;;;9.10;74.20
57192;BME280;43052;52.588;13.396;2023-03-25T04:21:17;99783.63;;;9.09;74.30
57192;BME280;43052;52.588;13.396;2023-03-25T04:23:42;99793.16;;;9.09;74.64
57192;BME280;43052;52.588;13.396;2023-03-25T04:26:10;99787.09;;;9.08;74.31
57192;BME280;43052;52.588;13.396;2023-03-25T04:28:36;99792.31;;;9.08;74.65
57192;BME280;43052;52.588;13.396;2023-03-25T04:31:02;99801.00;;;9.11;74.67
57192;BME280;43052;52.588;13.396;2023-03-25T04:33:31;99793.09;;;9.14;74.96
57192;BME280;43052;52.588;13.396;2023-03-25T04:35:56;99792.28;;;9.12;75.17
57192;BME280;43052;52.588;13.396;2023-03-25T04:38:21;99781.00;;;9.09;75.12
57192;BME280;43052;52.588;13.396;2023-03-25T04:40:47;99787.97;;;9.07;75.12
57192;BME280;43052;52.588;13.396;2023-03-25T04:43:13;99782.81;;;9.06;75.28
57192;BME280;43052;52.588;13.396;2023-03-25T04:45:38;99783.84;;;8.92;75.05
57192;BME280;43052;52.588;13.396;2023-03-25T04:48:15;99785.84;;;8.76;75.06
57192;BME280;43052;52.588;13.396;2023-03-25T04:50:44;99787.81;;;8.56;75.47
57192;BME280;43052;52.588;13.396;2023-03-25T04:53:09;99785.38;;;8.40;75.64
57192;BME280;43052;52.588;13.396;2023-03-25T04:55:34;99789.00;;;8.27;75.82
57192;BME280;43052;52.588;13.396;2023-03-25T04:58:00;99786.56;;;8.14;76.46
57192;BME280;43052;52.588;13.396;2023-03-25T05:00:25;99779.72;;;8.03;75.98
57192;BME280;43052;52.588;13.396;2023-03-25T05:02:53;99787.66;;;7.93;76.59
57192;BME280;43052;52.588;13.396;2023-03-25T05:05:21;99792.91;;;7.89;76.75
57192;BME280;43052;52.588;13.396;2023-03-25T05:07:49;99787.69;;;7.89;76.96
57192;BME280;43052;52.588;13.396;2023-03-25T05:10:16;99789.44;;;7.85;77.08
57192;BME280;43052;52.588;13.396;2023-03-25T05:12:42;99788.56;;;7.88;77.14
57192;BME280;43052;52.588;13.396;2023-03-25T05:15:08;99772.94;;;7.89;77.30
57192;BME280;43052;52.588;13.396;2023-03-25T05:17:35;99779.72;;;8.04;77.23
57192;BME280;43052;52.588;13.396;2023-03-25T05:20:00;99787.44;;;8.12;77.42
57192;BME280;43052;52.588;13.396;2023-03-25T05:22:26;99784.78;;;8.18;76.95
57192;BME280;43052;52.588;13.396;2023-03-25T05:24:51;99785.59;;;8.20;77.13
57192;BME280;43052;52.588;13.396;2023-03-25T05:27:18;99785.56;;;8.23;76.98
57192;BME280;43052;52.588;13.396;2023-03-25T05:29:44;99773.41;;;8.25;77.06
57192;BME280;43052;52.588;13.396;2023-03-25T05:32:09;99781.16;;;8.30;77.12
57192;BME280;43052;52.588;13.396;2023-03-25T05:34:37;99784.59;;;8.34;76.93
57192;BME280;43052;52.588;13.396;2023-03-25T05:37:03;99779.28;;;8.40;76.91
57192;BME280;43052;52.588;13.396;2023-03-25T05:39:28;99773.09;;;8.53;77.16
57192;BME280;43052;52.588;13.396;2023-03-25T05:41:53;99771.09;;;8.72;76.88
57192;BME280;43052;52.588;13.396;2023-03-25T05:44:19;99780.28;;;8.98;76.54
57192;BME280;43052;52.588;13.396;2023-03-25T05:46:45;99780.63;;;9.34;76.10
57192;BME280;43052;52.588;13.396;2023-03-25T05:49:10;99784.31;;;9.74;75.21
57192;BME280;43052;52.588;13.396;2023-03-25T05:51:35;99779.50;;;9.98;74.55
57192;BME280;43052;52.588;13.396;2023-03-25T05:54:04;99793.03;;;10.20;73.91
57192;BME280;43052;52.588;13.396;2023-03-25T05:56:34;99799.84;;;10.27;73.34
57192;BME280;43052;52.588;13.396;2023-03-25T05:59:01;99791.97;;;10.30;73.38
57192;BME280;43052;52.588;13.396;2023-03-25T06:01:27;99793.69;;;10.31;73.14
57192;BME280;43052;52.588;13.396;2023-03-25T06:03:53;99795.53;;;10.26;72.83
57192;BME280;43052;52.588;13.396;2023-03-25T06:06:18;99807.06;;;10.16;72.87
57192;BME280;43052;52.588;13.396;2023-03-25T06:08:48;99804.63;;;10.05;72.74
57192;BME280;43052;52.588;13.396;2023-03-25T06:11:15;99802.00;;;10.07;72.82
57192;BME280;43052;52.588;13.396;2023-03-25T06:13:42;99797.63;;;10.09;72.76
57192;BME280;43052;52.588;13.396;2023-03-25T06:16:16;99813.94;;;10.20;72.22
57192;BME280;43052;52.588;13.396;2023-03-25T06:18:45;99812.78;;;10.35;71.58
57192;BME280;43052;52.588;13.396;2023-03-25T06:21:15;99814.50;;;10.38;70.87
57192;BME280;43052;52.588;13.396;2023-03-25T06:23:40;99821.44;;;10.39;70.84
57192;BME280;43052;52.588;13.396;2023-03-25T06:26:06;99802.28;;;10.40;71.03
57192;BME280;43052;52.588;13.396;2023-03-25T06:28:31;99817.75;;;10.49;70.83
57192;BME280;43052;52.588;13.396;2023-03-25T06:30:57;99814.22;;;10.52;70.37
57192;BME280;43052;52.588;13.396;2023-03-25T06:33:23;99801.28;;;10.45;70.15
57192;BME280;43052;52.588;13.396;2023-03-25T06:35:48;99814.34;;;10.45;70.15
57192;BME280;43052;52.588;13.396;2023-03-25T06:38:19;99819.03;;;10.72;69.72
57192;BME280;43052;52.588;13.396;2023-03-25T06:40:45;99822.25;;;11.24;68.09
57192;BME280;43052;52.588;13.396;2023-03-25T06:43:11;99821.50;;;11.56;67.12
57192;BME280;43052;52.588;13.396;2023-03-25T06:45:37;99815.41;;;11.90;66.46
57192;BME280;43052;52.588;13.396;2023-03-25T06:48:02;99810.28;;;12.20;65.50
57192;BME280;43052;52.588;13.396;2023-03-25T06:50:29;99819.31;;;12.42;64.61
57192;BME280;43052;52.588;13.396;2023-03-25T06:52:54;99811.06;;;12.56;63.29
57192;BME280;43052;52.588;13.396;2023-03-25T06:55:19;99822.00;;;13.00;62.78
57192;BME280;43052;52.588;13.396;2023-03-25T06:57:45;99807.00;;;13.32;61.18
57192;BME280;43052;52.588;13.396;2023-03-25T07:00:10;99816.31;;;13.42;60.50
57192;BME280;43052;52.588;13.396;2023-03-25T07:02:36;99811.47;;;13.28;60.33
57192;BME280;43052;52.588;13.396;2023-03-25T07:05:02;99802.16;;;14.24;59.58
57192;BME280;43052;52.588;13.396;2023-03-25T07:07:27;99791.75;;;16.80;55.21
57192;BME280;43052;52.588;13.396;2023-03-25T07:09:52;99798.47;;;19.28;50.48
57192;BME280;43052;52.588;13.396;2023-03-25T07:12:19;99806.50;;;21.32;46.63
57192;BME280;43052;52.588;13.396;2023-03-25T07:14:50;99800.88;;;22.80;41.48
57192;BME280;43052;52.588;13.396;2023-03-25T07:17:15;99792.78;;;23.90;38.21
57192;BME280;43052;52.588;13.396;2023-03-25T07:19:40;99801.72;;;24.82;37.11
57192;BME280;43052;52.588;13.396;2023-03-25T07:22:07;99800.75;;;25.71;34.71
57192;BME280;43052;52.588;13.396;2023-03-25T07:24:32;99804.00;;;26.38;33.42
57192;BME280;43052;52.588;13.396;2023-03-25T07:26:58;99798.44;;;27.11;32.08
57192;BME280;43052;52.588;13.396;2023-03-25T07:29:23;99790.75;;;27.57;29.92
57192;BME280;43052;52.588;13.396;2023-03-25T07:31:48;99798.22;;;27.83;30.43
57192;BME280;43052;52.588;13.396;2023-03-25T07:34:13;99806.09;;;28.52;29.12
57192;BME280;43052;52.588;13.396;2023-03-25T07:36:39;99814.84;;;29.37;27.63
57192;BME280;43052;52.588;13.396;2023-03-25T07:39:04;99802.25;;;29.82;26.30
57192;BME280;43052;52.588;13.396;2023-03-25T07:41:31;99798.84;;;29.98;25.07
57192;BME280;43052;52.588;13.396;2023-03-25T07:43:57;99801.53;;;30.25;25.03
57192;BME280;43052;52.588;13.396;2023-03-25T07:46:22;99796.31;;;29.06;26.07
57192;BME280;43052;52.588;13.396;2023-03-25T07:48:47;99806.84;;;27.57;27.01
57192;BME280;43052;52.588;13.396;2023-03-25T07:51:12;99794.75;;;28.20;26.57
57192;BME280;43052;52.588;13.396;2023-03-25T07:53:38;99812.69;;;28.95;25.96
57192;BME280;43052;52.588;13.396;2023-03-25T07:56:06;99800.34;;;28.37;25.46
57192;BME280;43052;52.588;13.396;2023-03-25T07:58:32;99797.22;;;27.84;26.12
57192;BME280;43052;52.588;13.396;2023-03-25T08:00:57;99804.03;;;28.73;26.04
57192;BME280;43052;52.588;13.396;2023-03-25T08:03:22;99791.03;;;30.13;24.23
57192;BME280;43052;52.588;13.396;2023-03-25T08:05:47;99798.28;;;30.82;22.62
57192;BME280;43052;52.588;13.396;2023-03-25T08:08:13;99797.91;;;30.69;23.60
57192;BME280;43052;52.588;13.396;2023-03-25T08:10:41;99801.53;;;30.25;22.85
57192;BME280;43052;52.588;13.396;2023-03-25T08:13:07;99804.50;;;28.21;24.40
57192;BME280;43052;52.588;13.396;2023-03-25T08:15:33;99801.81;;;25.79;27.24
57192;BME280;43052;52.588;13.396;2023-03-25T08:17:59;99811.25;;;23.93;29.28
57192;BME280;43052;52.588;13.396;2023-03-25T08:20:25;99809.69;;;22.44;32.19
57192;BME280;43052;52.588;13.396;2023-03-25T08:22:50;99809.63;;;21.52;33.23
57192;BME280;43052;52.588;13.396;2023-03-25T08:25:16;99818.16;;;21.29;33.87
57192;BME280;43052;52.588;13.396;2023-03-25T08:27:41;99809.81;;;22.79;32.25
57192;BME280;43052;52.588;13.396;2023-03-25T08:30:07;99803.81;;;22.51;32.13
57192;BME280;43052;52.588;13.396;2023-03-25T08:32:34;99817.09;;;21.19;33.39
57192;BME280;43052;52.588;13.396;2023-03-25T08:35:00;99809.31;;;19.86;35.59
57192;BME280;43052;52.588;13.396;2023-03-25T08:37:25;99832.34;;;18.73;37.58
57192;BME280;43052;52.588;13.396;2023-03-25T08:39:50;99832.19;;;17.74;39.01
57192;BME280;43052;52.588;13.396;2023-03-25T08:42:19;99836.03;;;16.94;40.29
57192;BME280;43052;52.588;13.396;2023-03-25T08:44:44;99828.44;;;16.27;41.79
57192;BME280;43052;52.588;13.396;2023-03-25T08:47:11;99834.66;;;15.62;43.98
57192;BME280;43052;52.588;13.396;2023-03-25T08:49:36;99831.66;;;15.05;46.52
57192;BME280;43052;52.588;13.396;2023-03-25T08:52:01;99816.28;;;14.70;47.99
57192;BME280;43052;52.588;13.396;2023-03-25T08:54:28;99820.22;;;14.82;49.07
57192;BME280;43052;52.588;13.396;2023-03-25T08:56:54;99806.81;;;15.98;47.50
57192;BME280;43052;52.588;13.396;2023-03-25T08:59:20;99813.88;;;17.15;45.23
57192;BME280;43052;52.588;13.396;2023-03-25T09:01:45;99814.97;;;16.92;45.34
57192;BME280;43052;52.588;13.396;2023-03-25T09:04:11;99822.47;;;16.42;46.23
57192;BME280;43052;52.588;13.396;2023-03-25T09:06:37;99812.44;;;15.90;47.23
57192;BME280;43052;52.588;13.396;2023-03-25T09:09:03;99813.59;;;15.40;47.83
57192;BME280;43052;52.588;13.396;2023-03-25T09:11:32;99811.44;;;15.06;48.36
57192;BME280;43052;52.588;13.396;2023-03-25T09:13:59;99813.75;;;16.21;47.54
57192;BME280;43052;52.588;13.396;2023-03-25T09:16:26;99806.88;;;17.51;45.00
57192;BME280;43052;52.588;13.396;2023-03-25T09:18:52;99816.09;;;17.79;44.05
57192;BME280;43052;52.588;13.396;2023-03-25T09:21:17;99815.25;;;17.24;44.18
57192;BME280;43052;52.588;13.396;2023-03-25T09:23:42;99831.72;;;16.32;45.51
57192;BME280;43052;52.588;13.396;2023-03-25T09:26:07;99837.97;;;15.45;47.60
57192;BME280;43052;52.588;13.396;2023-03-25T09:28:33;99841.50;;;15.00;49.20
57192;BME280;43052;52.588;13.396;2023-03-25T09:30:58;99849.34;;;15.01;50.03
57192;BME280;43052;52.588;13.396;2023-03-25T09:33:23;99835.44;;;14.98;50.04
57192;BME280;43052;52.588;13.396;2023-03-25T09:35:51;99842.16;;;14.57;50.21
57192;BME280;43052;52.588;13.396;2023-03-25T09:38:16;99848.44;;;14.04;51.10
57192;BME280;43052;52.588;13.396;2023-03-25T09:40:42;99849.38;;;13.76;51.90
57192;BME280;43052;52.588;13.396;2023-03-25T09:45:53;99843.94;;;14.08;51.97
57192;BME280;43052;52.588;13.396;2023-03-25T09:48:24;99854.56;;;14.30;50.96
57192;BME280;43052;52.588;13.396;2023-03-25T09:50:51;99839.94;;;15.62;49.65
57192;BME280;43052;52.588;13.396;2023-03-25T09:53:27;99824.66;;;20.84;41.28
57192;BME280;43052;52.588;13.396;2023-03-25T09:55:54;99830.19;;;25.38;35.08
57192;BME280;43052;52.588;13.396;2023-03-25T09:58:27;99817.31;;;29.03;29.40
57192;BME280;43052;52.588;13.396;2023-03-25T10:01:02;99809.53;;;31.29;25.76
57192;BME280;43052;52.588;13.396;2023-03-25T10:03:42;99807.81;;;29.81;25.88
57192;BME280;43052;52.588;13.396;2023-03-25T10:06:16;99826.97;;;26.93;29.51
57192;BME280;43052;52.588;13.396;2023-03-25T10:08:51;99808.31;;;24.78;30.98
57192;BME280;43052;52.588;13.396;2023-03-25T10:11:42;99820.41;;;22.03;33.71
57192;BME280;43052;52.588;13.396;2023-03-25T10:14:18;99829.50;;;19.88;36.36
57192;BME280;43052;52.588;13.396;2023-03-25T10:16:54;99825.28;;;18.40;38.81
57192;BME280;43052;52.588;13.396;2023-03-25T10:22:07;99823.38;;;17.74;40.90
57192;BME280;43052;52.588;13.396;2023-03-25T10:24:43;99811.00;;;21.44;36.87
57192;BME280;43052;52.588;13.396;2023-03-25T10:27:36;99803.56;;;25.69;31.09
57192;BME280;43052;52.588;13.396;2023-03-25T10:30:09;99791.47;;;26.79;28.54
57192;BME280;43052;52.588;13.396;2023-03-25T10:32:44;99792.13;;;25.67;28.20
57192;BME280;43052;52.588;13.396;2023-03-25T10:35:35;99792.66;;;26.03;28.58
57192;BME280;43052;52.588;13.396;2023-03-25T10:38:06;99798.41;;;25.56;28.00
57192;BME280;43052;52.588;13.396;2023-03-25T10:40:39;99797.63;;;24.89;29.32
57192;BME280;43052;52.588;13.396;2023-03-25T10:43:26;99795.66;;;24.23;28.84
57192;BME280;43052;52.588;13.396;2023-03-25T10:45:56;99785.75;;;22.81;30.52
57192;BME280;43052;52.588;13.396;2023-03-25T10:48:29;99798.78;;;21.15;32.28
57192;BME280;43052;52.588;13.396;2023-03-25T10:51:28;99801.81;;;19.93;34.37
57192;BME280;43052;52.588;13.396;2023-03-25T10:53:54;99790.03;;;20.27;34.70
57192;BME280;43052;52.588;13.396;2023-03-25T10:56:33;99788.97;;;20.59;34.19
57192;BME280;43052;52.588;13.396;2023-03-25T10:59:03;99795.69;;;20.50;34.37
57192;BME280;43052;52.588;13.396;2023-03-25T11:01:36;99793.13;;;20.05;34.57
57192;BME280;43052;52.588;13.396;2023-03-25T11:04:04;99793.25;;;19.42;35.31
57192;BME280;43052;52.588;13.396;2023-03-25T11:06:33;99795.41;;;18.88;36.16
57192;BME280;43052;52.588;13.396;2023-03-25T11:11:47;99792.56;;;18.25;37.15
57192;BME280;43052;52.588;13.396;2023-03-25T11:14:13;99794.38;;;18.25;37.75
57192;BME280;43052;52.588;13.396;2023-03-25T11:16:42;99787.06;;;17.77;38.21
57192;BME280;43052;52.588;13.396;2023-03-25T11:19:17;99785.38;;;17.22;39.24
57192;BME280;43052;52.588;13.396;2023-03-25T11:21:46;99782.84;;;16.82;40.05
57192;BME280;43052;52.588;13.396;2023-03-25T11:24:14;99788.75;;;16.49;40.84
57192;BME280;43052;52.588;13.396;2023-03-25T11:26:45;99792.56;;;16.23;41.95
57192;BME280;43052;52.588;13.396;2023-03-25T11:29:15;99798.06;;;15.97;42.30
57192;BME280;43052;52.588;13.396;2023-03-25T11:31:42;99809.66;;;15.50;43.94
57192;BME280;43052;52.588;13.396;2023-03-25T11:36:38;99841.69;;;13.97;48.52
57192;BME280;43052;52.588;13.396;2023-03-25T11:39:23;99827.59;;;13.16;50.53
57192;BME280;43052;52.588;13.396;2023-03-25T11:41:50;99816.94;;;12.64;51.76
57192;BME280;43052;52.588;13.396;2023-03-25T11:44:21;99808.25;;;12.62;53.43
57192;BME280;43052;52.588;13.396;2023-03-25T11:46:50;99808.72;;;13.33;53.49
57192;BME280;43052;52.588;13.396;2023-03-25T11:49:19;99801.28;;;14.00;52.58
57192;BME280;43052;52.588;13.396;2023-03-25T11:51:47;99799.16;;;14.35;52.18
57192;BME280;43052;52.588;13.396;2023-03-25T11:54:14;99791.78;;;14.45;52.02
57192;BME280;43052;52.588;13.396;2023-03-25T11:56:42;99786.28;;;14.51;52.50
57192;BME280;43052;52.588;13.396;2023-03-25T11:59:21;99784.72;;;14.70;52.88
57192;BME280;43052;52.588;13.396;2023-03-25T12:01:49;99778.25;;;14.79;52.91
57192;BME280;43052;52.588;13.396;2023-03-25T12:04:20;99777.75;;;14.92;52.69
57192;BME280;43052;52.588;13.396;2023-03-25T12:09:27;99763.69;;;15.58;51.92
57192;BME280;43052;52.588;13.396;2023-03-25T12:18:04;99750.56;;;16.18;49.94
57192;BME280;43052;52.588;13.396;2023-03-25T12:20:56;99747.47;;;15.89;49.93
57192;BME280;43052;52.588;13.396;2023-03-25T12:26:44;99745.16;;;14.96;51.22
57192;BME280;43052;52.588;13.396;2023-03-25T12:30:01;99750.31;;;14.75;51.07
57192;BME280;43052;52.588;13.396;2023-03-25T12:32:37;99739.00;;;14.73;50.98
57192;BME280;43052;52.588;13.396;2023-03-25T12:38:17;99727.28;;;15.47;49.40
57192;BME280;43052;52.588;13.396;2023-03-25T12:41:02;99726.41;;;15.88;48.34
57192;BME280;43052;52.588;13.396;2023-03-25T12:43:47;99715.13;;;16.05;47.47
57192;BME280;43052;52.588;13.396;2023-03-25T12:49:12;99730.38;;;15.77;45.69
57192;BME280;43052;52.588;13.396;2023-03-25T12:52:10;99735.13;;;15.26;47.31
57192;BME280;43052;52.588;13.396;2023-03-25T12:54:52;99749.41;;;14.76;49.28
57192;BME280;43052;52.588;13.396;2023-03-25T12:57:50;99738.41;;;14.65;50.43
57192;BME280;43052;52.588;13.396;2023-03-25T13:00:49;99733.56;;;14.54;50.89
57192;BME280;43052;52.588;13.396;2023-03-25T13:03:52;99728.56;;;14.48;50.43
57192;BME280;43052;52.588;13.396;2023-03-25T13:06:30;99732.03;;;14.24;50.65
57192;BME280;43052;52.588;13.396;2023-03-25T13:09:07;99729.09;;;14.08;50.95
57192;BME280;43052;52.588;13.396;2023-03-25T13:11:41;99732.22;;;13.94;51.12
57192;BME280;43052;52.588;13.396;2023-03-25T13:14:16;99735.50;;;13.76;51.07
57192;BME280;43052;52.588;13.396;2023-03-25T13:16:45;99757.00;;;13.62;51.28
57192;BME280;43052;52.588;13.396;2023-03-25T13:19:17;99758.44;;;13.45;52.26
57192;BME280;43052;52.588;13.396;2023-03-25T13:21:50;99766.25;;;13.20;54.07
57192;BME280;43052;52.588;13.396;2023-03-25T13:24:20;99758.00;;;13.04;54.15
57192;BME280;43052;52.588;13.396;2023-03-25T13:26:47;99763.56;;;13.22;53.92
57192;BME280;43052;52.588;13.396;2023-03-25T13:29:27;99753.91;;;13.51;53.70
57192;BME280;43052;52.588;13.396;2023-03-25T13:31:56;99745.44;;;13.42;53.40
57192;BME280;43052;52.588;13.396;2023-03-25T13:34:39;99748.84;;;13.18;53.80
57192;BME280;43052;52.588;13.396;2023-03-25T13:37:25;99745.22;;;12.93;54.06
57192;BME280;43052;52.588;13.396;2023-03-25T13:40:24;99746.75;;;12.72;54.73
57192;BME280;43052;52.588;13.396;2023-03-25T13:42:57;99754.88;;;12.63;54.66
57192;BME280;43052;52.588;13.396;2023-03-25T13:45:24;99747.09;;;12.60;55.10
57192;BME280;43052;52.588;13.396;2023-03-25T13:48:04;99752.34;;;12.60;55.30
57192;BME280;43052;52.588;13.396;2023-03-25T13:50:32;99747.97;;;12.60;55.66
57192;BME280;43052;52.588;13.396;2023-03-25T13:53:03;99736.63;;;12.60;55.86
57192;BME280;43052;52.588;13.396;2023-03-25T13:55:34;99740.97;;;12.61;56.04
57192;BME280;43052;52.588;13.396;2023-03-25T14:01:11;99738.53;;;12.83;56.10
57192;BME280;43052;52.588;13.396;2023-03-25T14:04:05;99747.44;;;13.06;55.91
57192;BME280;43052;52.588;13.396;2023-03-25T14:06:47;99738.94;;;13.26;55.75
57192;BME280;43052;52.588;13.396;2023-03-25T14:12:29;99729.59;;;13.17;55.01
57192;BME280;43052;52.588;13.396;2023-03-25T14:15:02;99729.88;;;13.08;55.31